Time;durP1;ratioP1;P1;durP2;ratioP2;P2;SDS_P1;SDS_P2;PMS_P1;PMS_P2;Temp;Humidity;BMP_temperature;BMP_pressure;BME280_temperature;BME280_humidity;BME280_pressure;Samples;Min_cycle;Max_cycle;Signal;HPM_P1;HPM_P2
2023/12/03 00:01:51;;;;;;;0.22;0.22;;;-1.90;1.00;;;;;;4942682;29;20040;-81
2023/12/03 00:04:17;;;;;;;8.88;1.65;;;-1.90;1.00;;;;;;4932792;29;20040;-80
2023/12/03 00:06:43;;;;;;;1.02;1.02;;;-1.90;13.20;;;;;;4931211;29;20060;-80
2023/12/03 00:09:10;;;;;;;1.35;1.25;;;-1.90;9.40;;;;;;4940645;28;20044;-80
2023/12/03 00:11:36;;;;;;;1.40;0.75;;;-2.00;23.20;;;;;;4943862;29;20484;-83
2023/12/03 00:14:02;;;;;;;1.50;0.90;;;-2.10;20.90;;;;;;4944736;29;20040;-82
2023/12/03 00:16:28;;;;;;;0.63;0.63;;;-2.00;19.10;;;;;;4926891;28;20048;-84
2023/12/03 00:18:54;;;;;;;0.82;0.60;;;-2.10;26.40;;;;;;4935993;29;20040;-82
2023/12/03 00:21:21;;;;;;;0.98;0.98;;;-2.10;37.20;;;;;;4925226;29;20044;-81
2023/12/03 00:23:47;;;;;;;3.83;2.92;;;-2.20;46.20;;;;;;4939587;28;20509;-81
2023/12/03 00:26:13;;;;;;;2.20;0.80;;;-2.20;46.80;;;;;;4929460;29;20035;-82
2023/12/03 00:28:45;;;;;;;2.30;1.65;;;-2.20;57.10;;;;;;4919448;29;20039;-82
2023/12/03 00:31:12;;;;;;;0.68;0.68;;;-2.30;65.70;;;;;;4920201;29;20036;-81
2023/12/03 00:33:38;;;;;;;1.90;1.75;;;-2.30;71.70;;;;;;4927052;29;20055;-80
2023/12/03 00:36:05;;;;;;;0.30;0.20;;;-2.40;92.10;;;;;;4929383;29;20487;-80
2023/12/03 00:38:31;;;;;;;1.98;1.83;;;-2.40;93.90;;;;;;4924541;29;20121;-81
2023/12/03 00:40:57;;;;;;;0.68;0.68;;;-2.40;94.60;;;;;;4919195;29;20047;-79
2023/12/03 00:43:23;;;;;;;0.70;0.35;;;-2.30;90.70;;;;;;4928501;29;20058;-79
2023/12/03 00:45:51;;;;;;;0.45;0.45;;;-2.40;94.30;;;;;;4943598;28;20075;-80
2023/12/03 00:48:18;;;;;;;0.52;0.52;;;-2.40;97.00;;;;;;4941156;29;20375;-80
2023/12/03 00:50:44;;;;;;;1.70;1.60;;;-2.50;99.90;;;;;;4923011;29;20040;-80
2023/12/03 00:53:10;;;;;;;3.55;1.70;;;-2.50;99.90;;;;;;4930074;29;20036;-79
2023/12/03 00:55:36;;;;;;;2.58;2.40;;;-2.50;99.90;;;;;;4950024;29;20067;-79
2023/12/03 00:58:03;;;;;;;3.45;1.52;;;-2.40;99.90;;;;;;4925947;29;20050;-80
2023/12/03 01:00:29;;;;;;;2.05;1.80;;;-2.50;99.90;;;;;;4927825;29;20470;-79
2023/12/03 01:02:55;;;;;;;1.90;1.80;;;-2.40;99.90;;;;;;4932631;28;20814;-81
2023/12/03 01:05:21;;;;;;;2.47;2.22;;;-2.50;99.90;;;;;;4927267;29;20062;-80
2023/12/03 01:07:47;;;;;;;5.63;2.97;;;-2.60;99.90;;;;;;4924499;29;20478;-80
2023/12/03 01:10:13;;;;;;;2.38;1.73;;;-2.70;99.90;;;;;;4928013;29;20512;-80
2023/12/03 01:12:40;;;;;;;13.55;3.33;;;-2.70;99.90;;;;;;4919883;29;20052;-80
2023/12/03 01:15:07;;;;;;;1.30;1.20;;;-2.80;99.90;;;;;;4924186;29;20040;-80
2023/12/03 01:17:33;;;;;;;1.13;1.13;;;-2.80;99.90;;;;;;4941580;29;20067;-81
2023/12/03 01:19:59;;;;;;;1.08;1.00;;;-2.80;99.90;;;;;;4925497;29;20043;-80
2023/12/03 01:22:25;;;;;;;0.73;0.73;;;-2.80;99.90;;;;;;4904520;29;20048;-79
2023/12/03 01:24:51;;;;;;;2.50;1.02;;;-2.70;99.90;;;;;;4922913;29;20461;-80
2023/12/03 01:27:17;;;;;;;2.58;1.35;;;-2.80;99.90;;;;;;4928385;29;20051;-80
2023/12/03 01:29:43;;;;;;;0.28;0.28;;;-2.80;99.90;;;;;;4925734;29;20036;-80
2023/12/03 01:32:10;;;;;;;0.73;0.73;;;-2.90;99.90;;;;;;4923440;29;20513;-80
2023/12/03 01:34:36;;;;;;;1.40;1.30;;;-2.90;99.90;;;;;;4935785;29;20051;-81
2023/12/03 01:37:02;;;;;;;0.20;0.20;;;-2.90;99.90;;;;;;4940902;28;20055;-80
2023/12/03 01:39:29;;;;;;;0.45;0.45;;;-2.90;99.90;;;;;;4926020;29;20035;-79
2023/12/03 01:41:55;;;;;;;2.92;1.73;;;-2.90;99.90;;;;;;4922278;29;20048;-79
2023/12/03 01:44:21;;;;;;;3.00;2.63;;;-2.70;99.90;;;;;;4921501;29;20032;-80
2023/12/03 01:46:49;;;;;;;4.72;1.52;;;-2.70;99.90;;;;;;4929199;29;20048;-80
2023/12/03 01:49:16;;;;;;;1.60;1.50;;;-2.70;99.90;;;;;;4931291;29;20055;-80
2023/12/03 01:51:44;;;;;;;2.53;1.95;;;-2.70;99.90;;;;;;4923916;29;20039;-80
2023/12/03 01:54:10;;;;;;;0.85;0.85;;;-2.70;99.90;;;;;;4921388;29;20059;-81
2023/12/03 01:56:36;;;;;;;2.45;1.90;;;-2.70;99.90;;;;;;4930346;29;20039;-80
2023/12/03 01:59:02;;;;;;;2.85;2.65;;;-2.70;99.90;;;;;;4926865;29;20040;-80
2023/12/03 02:01:29;;;;;;;1.73;1.27;;;-2.70;99.90;;;;;;4925546;29;20047;-81
2023/12/03 02:03:55;;;;;;;3.53;2.13;;;-2.70;99.90;;;;;;4919774;29;20028;-80
2023/12/03 02:06:21;;;;;;;2.95;2.00;;;-2.70;99.90;;;;;;4920592;29;20040;-80
2023/12/03 02:08:47;;;;;;;1.42;1.35;;;-2.90;99.90;;;;;;4925100;29;20040;-80
2023/12/03 02:11:14;;;;;;;0.55;0.52;;;-3.00;99.90;;;;;;4925580;29;20035;-80
2023/12/03 02:13:40;;;;;;;2.78;1.65;;;-2.90;99.90;;;;;;4925850;29;20040;-80
2023/12/03 02:16:07;;;;;;;4.03;2.40;;;-3.00;99.90;;;;;;4937307;29;20051;-80
2023/12/03 02:18:33;;;;;;;1.25;1.13;;;-3.00;99.90;;;;;;4929713;29;20044;-80
2023/12/03 02:20:59;;;;;;;0.10;0.10;;;-3.00;99.90;;;;;;4929161;29;20063;-80
2023/12/03 02:23:29;;;;;;;0.65;0.65;;;-3.10;99.90;;;;;;4923054;29;20042;-80
2023/12/03 02:25:56;;;;;;;2.92;1.95;;;-3.20;99.90;;;;;;4921218;29;20040;-80
2023/12/03 02:28:22;;;;;;;1.05;1.00;;;-3.30;99.90;;;;;;4906510;29;20047;-80
2023/12/03 02:30:48;;;;;;;0.75;0.75;;;-3.30;99.90;;;;;;4922178;29;20043;-80
2023/12/03 02:33:14;;;;;;;0.52;0.43;;;-3.30;99.90;;;;;;4921475;29;20478;-80
2023/12/03 02:35:40;;;;;;;3.72;1.60;;;-3.30;99.90;;;;;;4924541;29;20059;-79
2023/12/03 02:38:06;;;;;;;1.48;1.00;;;-3.30;99.90;;;;;;4926094;29;20040;-79
2023/12/03 02:40:33;;;;;;;3.08;1.20;;;-3.40;99.90;;;;;;4930862;29;20051;-80
2023/12/03 02:43:00;;;;;;;3.88;2.03;;;-3.40;99.90;;;;;;4923748;29;20797;-80
2023/12/03 02:45:26;;;;;;;2.05;1.95;;;-3.50;99.90;;;;;;4925074;29;20059;-79
2023/12/03 02:47:52;;;;;;;0.95;0.95;;;-3.50;99.90;;;;;;4921713;29;20798;-80
2023/12/03 02:50:18;;;;;;;4.35;3.95;;;-3.40;99.90;;;;;;4923853;29;20036;-79
2023/12/03 02:52:44;;;;;;;0.25;0.25;;;-3.40;99.90;;;;;;4926380;29;20028;-80
2023/12/03 02:55:11;;;;;;;0.65;0.65;;;-3.40;99.90;;;;;;4924521;29;20066;-80
2023/12/03 02:57:37;;;;;;;0.70;0.70;;;-3.30;99.90;;;;;;4912263;29;20044;-80
2023/12/03 03:00:05;;;;;;;2.00;1.90;;;-3.30;99.90;;;;;;4925848;29;20058;-80
2023/12/03 03:02:36;;;;;;;6.25;3.75;;;-3.30;99.90;;;;;;4923095;29;20036;-80
2023/12/03 03:05:02;;;;;;;3.92;1.70;;;-3.20;99.90;;;;;;4926245;29;20063;-80
2023/12/03 03:07:28;;;;;;;2.58;2.33;;;-3.20;99.90;;;;;;4929794;29;20028;-80
2023/12/03 03:09:54;;;;;;;1.65;1.55;;;-3.20;99.90;;;;;;4924177;29;20208;-80
2023/12/03 03:12:21;;;;;;;2.05;1.30;;;-3.30;99.90;;;;;;4927434;29;20040;-79
2023/12/03 03:14:47;;;;;;;2.72;1.45;;;-3.30;99.90;;;;;;4942075;29;20070;-80
2023/12/03 03:17:13;;;;;;;3.28;2.13;;;-3.40;99.90;;;;;;4927336;29;20040;-80
2023/12/03 03:19:43;;;;;;;2.22;2.03;;;-3.40;99.90;;;;;;4935914;29;20050;-79
2023/12/03 03:22:13;;;;;;;3.00;2.80;;;-3.40;99.90;;;;;;4932956;29;20047;-79
2023/12/03 03:24:42;;;;;;;0.65;0.65;;;-3.50;99.90;;;;;;4927589;29;20121;-80
2023/12/03 03:27:09;;;;;;;5.25;3.05;;;-3.40;99.90;;;;;;4941047;29;20051;-80
2023/12/03 03:29:35;;;;;;;0.65;0.65;;;-3.50;99.90;;;;;;4912314;29;20043;-80
2023/12/03 03:32:02;;;;;;;1.67;1.55;;;-3.50;99.90;;;;;;4936062;29;20056;-79
2023/12/03 03:34:28;;;;;;;2.72;1.88;;;-3.50;1.00;;;;;;4927552;29;20054;-80
2023/12/03 03:36:54;;;;;;;1.38;1.27;;;-3.50;1.00;;;;;;4926277;29;20031;-79
2023/12/03 03:39:20;;;;;;;1.00;0.73;;;-3.40;1.00;;;;;;4927142;29;20064;-80
2023/12/03 03:41:47;;;;;;;1.60;1.50;;;-3.50;1.00;;;;;;4920828;29;20043;-79
2023/12/03 03:44:13;;;;;;;2.22;2.00;;;-3.40;1.00;;;;;;4917363;29;20094;-80
2023/12/03 03:46:39;;;;;;;2.40;1.58;;;-3.50;1.00;;;;;;4938983;28;20070;-80
2023/12/03 03:49:06;;;;;;;2.20;1.98;;;-3.40;1.00;;;;;;4941516;29;20059;-80
2023/12/03 03:51:32;;;;;;;1.38;1.30;;;-3.50;1.00;;;;;;4924517;29;20058;-80
2023/12/03 03:53:58;;;;;;;2.30;1.25;;;-3.50;1.00;;;;;;4913623;29;20055;-80
2023/12/03 03:56:24;;;;;;;1.77;1.65;;;-3.50;1.00;;;;;;4923218;29;20032;-80
2023/12/03 03:58:50;;;;;;;2.40;1.40;;;-3.50;1.00;;;;;;4928052;29;20051;-81
2023/12/03 04:01:16;;;;;;;0.43;0.40;;;-3.50;1.00;;;;;;4943927;29;20482;-81
2023/12/03 04:03:43;;;;;;;0.10;0.10;;;-3.50;1.00;;;;;;4938743;28;20048;-80
2023/12/03 04:06:09;;;;;;;4.70;3.03;;;-3.50;1.00;;;;;;4943882;29;20036;-79
2023/12/03 04:08:35;;;;;;;1.38;1.27;;;-3.40;1.00;;;;;;4942351;29;20043;-80
2023/12/03 04:11:05;;;;;;;0.98;0.73;;;-3.40;1.00;;;;;;4944127;29;20061;-79
2023/12/03 04:13:31;;;;;;;0.85;0.85;;;-3.40;1.00;;;;;;4926299;29;20028;-80
2023/12/03 04:15:57;;;;;;;3.83;1.95;;;-3.40;1.00;;;;;;4925324;29;20033;-80
2023/12/03 04:18:24;;;;;;;4.40;2.08;;;-3.50;1.00;;;;;;4927899;29;20036;-79
2023/12/03 04:20:50;;;;;;;1.85;0.80;;;-3.40;99.90;;;;;;4929663;29;20047;-80
2023/12/03 04:23:16;;;;;;;3.13;1.25;;;-3.40;99.90;;;;;;4909279;29;20051;-80
2023/12/03 04:25:43;;;;;;;2.85;2.05;;;-3.40;99.90;;;;;;4924570;29;20398;-80
2023/12/03 04:28:09;;;;;;;1.63;1.55;;;-3.50;99.90;;;;;;4927987;29;20058;-80
2023/12/03 04:30:35;;;;;;;1.88;1.77;;;-3.60;99.90;;;;;;4932392;29;20040;-80
2023/12/03 04:33:01;;;;;;;1.52;1.45;;;-3.60;1.00;;;;;;4929614;29;20040;-80
2023/12/03 04:35:27;;;;;;;3.03;1.25;;;-3.70;1.00;;;;;;4924552;29;20043;-79
2023/12/03 04:37:53;;;;;;;0.70;0.70;;;-3.80;1.00;;;;;;4925624;29;20109;-79
2023/12/03 04:40:20;;;;;;;5.35;1.85;;;-3.80;1.00;;;;;;4928563;29;20500;-79
2023/12/03 04:42:46;;;;;;;1.50;1.40;;;-3.80;1.00;;;;;;4927578;29;20035;-79
2023/12/03 04:45:12;;;;;;;2.53;2.05;;;-3.80;1.00;;;;;;4947801;28;20370;-80
2023/12/03 04:47:38;;;;;;;4.95;4.50;;;-3.80;1.00;;;;;;4946234;28;20042;-80
2023/12/03 04:50:05;;;;;;;4.97;4.18;;;-3.90;1.00;;;;;;4964180;28;20038;-80
2023/12/03 04:52:31;;;;;;;6.43;5.85;;;-3.90;1.00;;;;;;4966631;28;20034;-80
2023/12/03 04:54:57;;;;;;;3.55;3.22;;;-4.00;1.00;;;;;;4963891;28;20863;-80
2023/12/03 04:57:23;;;;;;;0.95;0.93;;;-3.90;1.00;;;;;;4962041;28;20034;-79
2023/12/03 04:59:50;;;;;;;3.90;3.53;;;-3.90;1.00;;;;;;4964337;28;20046;-79
2023/12/03 05:02:16;;;;;;;4.03;3.75;;;-3.90;1.00;;;;;;4967467;28;20050;-80
2023/12/03 05:04:42;;;;;;;3.17;2.65;;;-4.00;1.00;;;;;;4964691;28;20035;-79
2023/12/03 05:07:08;;;;;;;9.18;3.72;;;-4.10;1.00;;;;;;4963472;28;20038;-79
2023/12/03 05:09:39;;;;;;;8.10;4.30;;;-4.10;1.00;;;;;;4966478;28;20031;-79
2023/12/03 05:12:05;;;;;;;5.72;4.72;;;-4.20;1.00;;;;;;4948872;28;20035;-79
2023/12/03 05:14:32;;;;;;;9.82;3.65;;;-4.20;1.00;;;;;;4948945;28;20069;-79
2023/12/03 05:16:59;;;;;;;3.42;2.53;;;-4.30;1.00;;;;;;4955627;28;20043;-79
2023/12/03 05:19:25;;;;;;;2.75;2.55;;;-4.40;1.00;;;;;;4965106;28;20042;-79
2023/12/03 05:21:51;;;;;;;6.45;4.68;;;-4.40;1.00;;;;;;4967268;28;20035;-79
2023/12/03 05:24:17;;;;;;;3.88;1.95;;;-4.40;1.00;;;;;;4968717;28;20050;-79
2023/12/03 05:26:43;;;;;;;0.28;0.28;;;-4.50;1.00;;;;;;4962295;28;20035;-80
2023/12/03 05:29:09;;;;;;;5.88;3.85;;;-4.40;1.00;;;;;;4952797;28;20050;-79
2023/12/03 05:31:35;;;;;;;1.25;1.17;;;-4.40;1.00;;;;;;4964848;28;20031;-82
2023/12/03 05:34:02;;;;;;;3.28;3.08;;;-4.40;1.00;;;;;;4963034;28;20473;-79
2023/12/03 05:36:28;;;;;;;4.25;3.95;;;-4.40;1.00;;;;;;4966874;28;20039;-79
2023/12/03 05:38:54;;;;;;;3.85;3.10;;;-4.30;1.00;;;;;;4964387;28;20105;-79
2023/12/03 05:41:20;;;;;;;2.03;1.55;;;-4.40;1.00;;;;;;4961940;28;20039;-79
2023/12/03 05:43:46;;;;;;;2.80;2.60;;;-4.40;1.00;;;;;;4959170;28;20043;-80
2023/12/03 05:46:12;;;;;;;4.97;3.53;;;-4.40;1.00;;;;;;4965892;28;20059;-79
2023/12/03 05:48:39;;;;;;;1.02;1.02;;;-4.40;1.00;;;;;;4948251;28;20046;-79
2023/12/03 05:51:10;;;;;;;0.70;0.70;;;-4.40;1.00;;;;;;4946542;28;20073;-79
2023/12/03 05:53:36;;;;;;;2.55;2.40;;;-4.40;1.00;;;;;;4961758;28;20503;-79
2023/12/03 05:56:02;;;;;;;1.55;1.45;;;-4.40;1.00;;;;;;4966298;28;20069;-79
2023/12/03 05:58:28;;;;;;;0.85;0.85;;;-4.40;1.00;;;;;;4966543;28;20039;-79
2023/12/03 06:00:55;;;;;;;1.70;1.60;;;-4.50;1.00;;;;;;4966829;28;20039;-79
2023/12/03 06:03:21;;;;;;;2.40;2.28;;;-4.50;7.20;;;;;;4951739;28;20039;-79
2023/12/03 06:05:47;;;;;;;0.47;0.47;;;-4.50;12.30;;;;;;4968677;28;20066;-79
2023/12/03 06:08:13;;;;;;;2.95;2.75;;;-4.40;13.90;;;;;;4951611;28;20039;-80
2023/12/03 06:10:39;;;;;;;8.45;2.15;;;-4.40;8.60;;;;;;4966549;28;20107;-79
2023/12/03 06:13:05;;;;;;;3.78;2.10;;;-4.40;3.20;;;;;;4959941;28;20034;-79
2023/12/03 06:15:32;;;;;;;5.18;4.70;;;-4.50;1.00;;;;;;4963613;28;20479;-79
2023/12/03 06:17:58;;;;;;;1.17;0.85;;;-4.60;6.90;;;;;;4947642;28;20038;-79
2023/12/03 06:20:24;;;;;;;0.75;0.75;;;-4.50;14.10;;;;;;4964615;28;20395;-79
2023/12/03 06:22:50;;;;;;;0.43;0.43;;;-4.40;13.20;;;;;;4962144;28;20038;-80
2023/12/03 06:25:16;;;;;;;0.52;0.52;;;-4.30;2.70;;;;;;4942131;28;20039;-79
2023/12/03 06:27:43;;;;;;;1.35;1.35;;;-4.20;1.00;;;;;;4964740;28;20078;-79
2023/12/03 06:30:10;;;;;;;2.20;2.10;;;-4.20;1.00;;;;;;4966895;28;20035;-79
2023/12/03 06:32:36;;;;;;;0.93;0.93;;;-4.20;1.00;;;;;;4960244;28;20039;-79
2023/12/03 06:35:04;;;;;;;3.20;2.30;;;-4.30;1.00;;;;;;4941600;28;20042;-79
2023/12/03 06:37:30;;;;;;;3.00;2.63;;;-4.30;1.00;;;;;;4932632;28;20039;-79
2023/12/03 06:39:56;;;;;;;4.13;2.40;;;-4.40;1.00;;;;;;4964196;28;20038;-79
2023/12/03 06:42:22;;;;;;;3.08;2.88;;;-4.40;1.00;;;;;;4944965;28;20039;-79
2023/12/03 06:44:49;;;;;;;1.05;1.05;;;-4.50;1.20;;;;;;4956453;28;20038;-80
2023/12/03 06:47:15;;;;;;;3.38;3.03;;;-4.50;3.30;;;;;;4964663;28;20109;-79
2023/12/03 06:49:42;;;;;;;4.72;3.05;;;-4.50;7.80;;;;;;4964709;28;20027;-79
2023/12/03 06:52:08;;;;;;;2.53;2.38;;;-4.60;13.40;;;;;;4964368;28;20357;-79
2023/12/03 06:54:34;;;;;;;3.45;2.47;;;-4.60;21.30;;;;;;4960623;28;20051;-79
2023/12/03 06:57:00;;;;;;;3.55;3.25;;;-4.60;32.20;;;;;;4959026;28;20385;-79
2023/12/03 06:59:26;;;;;;;5.70;2.42;;;-4.60;37.00;;;;;;4963603;28;20487;-79
2023/12/03 07:01:52;;;;;;;1.95;1.45;;;-4.60;48.40;;;;;;4965944;28;20046;-80
2023/12/03 07:04:18;;;;;;;1.90;1.77;;;-4.60;56.70;;;;;;4962050;28;20043;-80
2023/12/03 07:06:45;;;;;;;0.73;0.63;;;-4.60;66.10;;;;;;4964318;28;20030;-79
2023/12/03 07:09:11;;;;;;;9.32;1.85;;;-4.70;66.10;;;;;;4963743;28;20070;-79
2023/12/03 07:11:38;;;;;;;2.38;2.17;;;-4.60;68.20;;;;;;4965126;28;20047;-79
2023/12/03 07:14:04;;;;;;;2.42;2.22;;;-4.60;67.50;;;;;;4962753;28;20046;-79
2023/12/03 07:16:30;;;;;;;1.20;1.15;;;-4.60;74.40;;;;;;4940681;28;20031;-79
2023/12/03 07:18:56;;;;;;;1.58;1.48;;;-4.70;79.90;;;;;;4962382;28;20034;-80
2023/12/03 07:21:22;;;;;;;2.63;2.38;;;-4.70;83.80;;;;;;4965355;28;20030;-78
2023/12/03 07:23:49;;;;;;;3.03;1.77;;;-4.60;87.20;;;;;;4963241;28;20035;-79
2023/12/03 07:26:15;;;;;;;2.00;1.90;;;-4.60;91.20;;;;;;4961927;28;20042;-78
2023/12/03 07:28:41;;;;;;;4.18;2.20;;;-4.60;90.40;;;;;;4944560;28;20034;-79
2023/12/03 07:31:08;;;;;;;2.28;2.10;;;-4.50;85.00;;;;;;4947129;28;20476;-79
2023/12/03 07:33:34;;;;;;;2.33;2.13;;;-4.50;87.00;;;;;;4969295;28;20035;-79
2023/12/03 07:36:01;;;;;;;3.15;2.90;;;-4.50;90.00;;;;;;4935990;28;20051;-78
2023/12/03 07:38:28;;;;;;;5.25;4.75;;;-4.50;86.20;;;;;;4967701;28;20045;-77
2023/12/03 07:40:54;;;;;;;4.03;3.67;;;-4.50;78.10;;;;;;4970358;28;20031;-78
2023/12/03 07:43:20;;;;;;;12.60;4.47;;;-4.50;72.50;;;;;;4968015;28;20027;-78
2023/12/03 07:45:46;;;;;;;1.08;1.00;;;-4.50;72.40;;;;;;4966915;28;20408;-78
2023/12/03 07:48:12;;;;;;;1.70;1.60;;;-4.40;80.70;;;;;;4954689;29;20416;-78
2023/12/03 07:50:39;;;;;;;0.88;0.88;;;-4.30;78.20;;;;;;4966366;28;20047;-78
2023/12/03 07:53:05;;;;;;;1.52;1.42;;;-4.30;78.80;;;;;;4965796;28;20030;-78
2023/12/03 07:55:31;;;;;;;2.78;2.55;;;-4.20;75.20;;;;;;4968078;28;20042;-78
2023/12/03 07:57:57;;;;;;;2.15;2.05;;;-4.20;73.10;;;;;;4966819;28;20103;-78
2023/12/03 08:00:24;;;;;;;5.45;2.13;;;-4.10;71.10;;;;;;4955244;28;20038;-78
2023/12/03 08:02:50;;;;;;;3.10;2.90;;;-4.00;69.60;;;;;;4963287;28;20039;-79
2023/12/03 08:05:16;;;;;;;2.00;1.90;;;-3.90;60.70;;;;;;4962330;28;20042;-78
2023/12/03 08:07:43;;;;;;;4.00;3.58;;;-3.80;49.90;;;;;;4966804;28;20031;-78
2023/12/03 08:10:09;;;;;;;2.65;2.45;;;-3.70;38.70;;;;;;4960450;28;20031;-78
2023/12/03 08:12:35;;;;;;;2.15;2.05;;;-3.60;26.40;;;;;;4964477;28;20495;-78
2023/12/03 08:15:01;;;;;;;3.05;2.85;;;-3.60;15.80;;;;;;4966449;28;20054;-78
2023/12/03 08:17:27;;;;;;;5.03;2.63;;;-3.50;6.70;;;;;;4965016;28;20035;-78
2023/12/03 08:19:54;;;;;;;3.67;2.85;;;-3.40;1.00;;;;;;4966277;28;20045;-79
2023/12/03 08:22:20;;;;;;;1.02;1.00;;;-3.30;1.00;;;;;;4961700;28;20038;-78
2023/12/03 08:24:46;;;;;;;2.92;1.05;;;-3.20;1.00;;;;;;4948584;28;20054;-79
2023/12/03 08:27:12;;;;;;;7.55;0.93;;;-3.10;1.00;;;;;;4967631;28;20035;-78
2023/12/03 08:29:38;;;;;;;5.57;4.70;;;-3.10;1.00;;;;;;4968726;28;20034;-78
2023/12/03 08:32:04;;;;;;;3.38;3.03;;;-2.90;1.00;;;;;;4970048;28;20035;-78
2023/12/03 08:34:31;;;;;;;2.75;1.88;;;-2.80;1.00;;;;;;4965786;28;20376;-78
2023/12/03 08:36:57;;;;;;;6.03;4.78;;;-2.80;1.00;;;;;;4969123;28;20047;-79
2023/12/03 08:39:23;;;;;;;3.40;2.38;;;-2.70;1.00;;;;;;4965267;28;20035;-78
2023/12/03 08:41:49;;;;;;;0.70;0.35;;;-2.60;1.00;;;;;;4962608;28;20054;-79
2023/12/03 08:44:15;;;;;;;4.95;2.72;;;-2.60;1.00;;;;;;4960773;28;20054;-79
2023/12/03 08:46:42;;;;;;;7.25;6.60;;;-2.40;1.00;;;;;;4968393;28;20050;-79
2023/12/03 08:49:08;;;;;;;4.30;3.00;;;-2.30;1.00;;;;;;4970259;28;20039;-79
2023/12/03 08:51:36;;;;;;;3.28;2.85;;;-2.30;1.00;;;;;;4972791;28;20034;-79
2023/12/03 08:54:03;;;;;;;4.53;4.13;;;-2.20;1.00;;;;;;4966576;28;20033;-79
2023/12/03 08:56:29;;;;;;;6.35;2.75;;;-2.10;99.90;;;;;;4969450;28;20053;-79
2023/12/03 08:58:55;;;;;;;1.30;1.20;;;-2.00;99.90;;;;;;4970952;28;20092;-80
2023/12/03 09:01:21;;;;;;;4.22;3.05;;;-1.90;99.90;;;;;;4968898;28;20031;-79
2023/12/03 09:03:48;;;;;;;7.55;3.42;;;-1.90;99.90;;;;;;4960711;28;20027;-79
2023/12/03 09:06:15;;;;;;;2.47;2.28;;;-1.80;99.90;;;;;;4960564;28;20058;-80
2023/12/03 09:08:41;;;;;;;2.38;2.17;;;-1.70;99.90;;;;;;4948113;28;20034;-79
2023/12/03 09:11:08;;;;;;;3.10;2.00;;;-1.70;99.90;;;;;;4965813;28;20038;-78
2023/12/03 09:13:34;;;;;;;5.75;2.42;;;-1.70;99.90;;;;;;4961778;28;20500;-79
2023/12/03 09:16:00;;;;;;;3.75;3.20;;;-1.60;99.90;;;;;;4958238;28;20050;-79
2023/12/03 09:18:27;;;;;;;4.68;3.72;;;-1.60;99.90;;;;;;4967738;28;20035;-79
2023/12/03 09:20:53;;;;;;;1.73;1.63;;;-1.60;99.90;;;;;;4967149;28;20035;-80
2023/12/03 09:23:19;;;;;;;10.68;3.92;;;-1.50;99.90;;;;;;4967059;28;20034;-79
2023/12/03 09:25:45;;;;;;;2.22;2.05;;;-1.40;99.90;;;;;;4959837;28;20043;-78
2023/12/03 09:28:11;;;;;;;2.13;1.52;;;-1.40;99.90;;;;;;4943623;28;20047;-79
2023/12/03 09:30:38;;;;;;;4.95;2.55;;;-1.30;99.90;;;;;;4949278;28;20404;-78
2023/12/03 09:33:04;;;;;;;0.80;0.80;;;-1.20;99.90;;;;;;4968968;28;20035;-77
2023/12/03 09:35:32;;;;;;;1.77;1.67;;;-1.20;99.90;;;;;;4964431;28;20381;-77
2023/12/03 09:37:58;;;;;;;5.88;2.45;;;-1.10;99.90;;;;;;4958461;28;20049;-78
2023/12/03 09:40:24;;;;;;;2.50;2.35;;;-1.00;99.90;;;;;;4967784;28;20026;-75
2023/12/03 09:42:52;;;;;;;3.65;2.05;;;-1.00;99.90;;;;;;4965707;28;20034;-76
2023/12/03 09:45:21;;;;;;;4.07;3.72;;;-1.00;99.90;;;;;;4955298;28;20039;-77
2023/12/03 09:47:49;;;;;;;2.47;1.13;;;-0.90;99.90;;;;;;4958871;28;20047;-77
2023/12/03 09:50:16;;;;;;;5.05;3.97;;;-0.80;99.90;;;;;;4964434;28;20035;-77
2023/12/03 09:52:45;;;;;;;2.65;1.65;;;-0.80;99.90;;;;;;4966629;28;20041;-76
2023/12/03 09:55:12;;;;;;;4.60;3.33;;;-0.90;99.90;;;;;;4965699;28;20485;-77
2023/12/03 09:57:41;;;;;;;7.07;3.92;;;-0.80;99.90;;;;;;4962697;28;20402;-77
2023/12/03 10:00:08;;;;;;;12.40;3.88;;;-0.80;92.80;;;;;;4960627;28;20031;-77
2023/12/03 10:02:37;;;;;;;7.15;3.17;;;-0.70;94.00;;;;;;4964596;28;20035;-77
2023/12/03 10:05:04;;;;;;;3.65;2.83;;;-0.60;87.60;;;;;;4964475;28;20043;-78
2023/12/03 10:07:30;;;;;;;3.10;2.30;;;-0.50;56.80;;;;;;4962553;28;20384;-77
2023/12/03 10:09:58;;;;;;;2.45;1.50;;;-0.40;26.90;;;;;;4958335;28;20035;-79
2023/12/03 10:12:52;;;;;;;3.08;2.78;;;-0.60;22.00;;;;;;4964459;28;20376;-80
2023/12/03 10:15:18;;;;;;;2.65;1.98;;;-0.60;27.80;;;;;;4959870;28;20062;-77
2023/12/03 10:17:44;;;;;;;3.38;2.25;;;-0.60;29.10;;;;;;4943395;28;20058;-77
2023/12/03 10:20:26;;;;;;;2.13;1.95;;;-0.50;29.90;;;;;;4959699;28;20464;-78
2023/12/03 10:22:58;;;;;;;8.50;4.03;;;-0.40;3.60;;;;;;4961769;28;20031;-79
2023/12/03 10:25:36;;;;;;;4.78;4.38;;;-0.30;8.30;;;;;;4948897;28;20424;-78
2023/12/03 10:28:04;;;;;;;4.15;3.80;;;-0.20;1.00;;;;;;4967218;28;20492;-78
2023/12/03 10:30:31;;;;;;;2.33;2.15;;;-0.10;1.00;;;;;;4960059;28;20044;-77
2023/12/03 10:32:58;;;;;;;1.42;1.30;;;-0.10;1.00;;;;;;4963371;28;20368;-79
2023/12/03 10:35:26;;;;;;;1.83;1.73;;;0.10;1.00;;;;;;4966078;28;20058;-78
2023/12/03 10:37:52;;;;;;;2.53;2.33;;;0.20;1.00;;;;;;4966217;28;20054;-78
2023/12/03 10:40:19;;;;;;;10.55;3.53;;;0.00;1.00;;;;;;4963532;28;20346;-78
2023/12/03 10:42:46;;;;;;;9.35;2.00;;;0.00;1.00;;;;;;4960085;28;20515;-78
2023/12/03 10:45:14;;;;;;;10.07;3.13;;;0.10;1.00;;;;;;4965468;28;20043;-78
2023/12/03 10:47:41;;;;;;;4.85;2.05;;;0.00;1.00;;;;;;4965135;28;20027;-78
2023/12/03 10:50:09;;;;;;;0.70;0.70;;;0.10;1.00;;;;;;4961481;28;20031;-79
2023/12/03 10:52:39;;;;;;;3.13;2.85;;;0.30;1.00;;;;;;4943761;28;20075;-79
2023/12/03 10:55:08;;;;;;;1.95;1.85;;;0.30;1.00;;;;;;4960102;28;20396;-78
2023/12/03 10:57:52;;;;;;;1.25;0.80;;;0.30;1.00;;;;;;4948012;28;20074;-79
2023/12/03 11:00:21;;;;;;;1.85;1.75;;;0.20;1.00;;;;;;4943860;28;20039;-78
2023/12/03 11:03:02;;;;;;;7.15;2.67;;;0.20;1.00;;;;;;4959544;28;20038;-77
2023/12/03 11:05:31;;;;;;;5.90;2.47;;;0.30;1.00;;;;;;4961714;28;20039;-79
2023/12/03 11:08:01;;;;;;;2.53;2.28;;;0.20;1.00;;;;;;4968767;28;20023;-78
2023/12/03 11:10:27;;;;;;;3.08;2.63;;;0.30;1.00;;;;;;4967298;28;20035;-77
2023/12/03 11:12:54;;;;;;;0.77;0.77;;;0.30;1.00;;;;;;4963219;28;20047;-78
2023/12/03 11:15:21;;;;;;;0.45;0.45;;;0.30;1.00;;;;;;4964949;28;20026;-77
2023/12/03 11:17:50;;;;;;;4.43;4.13;;;0.40;1.00;;;;;;4967938;28;20038;-78
2023/12/03 11:20:22;;;;;;;1.80;1.70;;;0.40;1.00;;;;;;4969000;28;20039;-78
2023/12/03 11:23:16;;;;;;;5.10;2.28;;;0.40;1.00;;;;;;4970576;28;20107;-77
2023/12/03 11:26:07;;;;;;;1.92;1.33;;;0.30;1.00;;;;;;4968746;28;20035;-78
2023/12/03 11:28:34;;;;;;;;;;;0.30;1.00;;;;;;4968306;28;20503;-78
2023/12/03 11:31:00;;;;;;;1.30;1.27;;;0.30;1.00;;;;;;4969158;28;19910;-79
2023/12/03 11:33:27;;;;;;;15.05;3.72;;;0.40;1.00;;;;;;4963831;28;20046;-78
2023/12/03 11:35:53;;;;;;;2.95;1.58;;;0.40;1.00;;;;;;4967226;28;20042;-77
2023/12/03 11:38:19;;;;;;;1.25;1.25;;;0.50;1.00;;;;;;4966514;28;20060;-77
2023/12/03 11:40:46;;;;;;;2.22;2.10;;;0.60;1.00;;;;;;4952944;28;20034;-77
2023/12/03 11:43:26;;;;;;;1.70;1.60;;;0.60;1.00;;;;;;4955507;28;20488;-77
2023/12/03 11:45:53;;;;;;;5.35;4.10;;;0.60;1.00;;;;;;4957822;28;20043;-77
2023/12/03 11:48:20;;;;;;;8.25;3.33;;;0.70;1.00;;;;;;4965567;28;20034;-77
2023/12/03 11:50:48;;;;;;;3.60;3.30;;;0.70;1.00;;;;;;4969570;28;20042;-78
2023/12/03 11:53:16;;;;;;;1.83;1.70;;;0.70;1.00;;;;;;4965678;28;20043;-78
2023/12/03 11:55:47;;;;;;;0.47;0.47;;;0.60;1.00;;;;;;4964687;28;20036;-78
2023/12/03 11:58:14;;;;;;;8.88;3.85;;;0.60;1.00;;;;;;4966860;28;20043;-78
2023/12/03 12:00:41;;;;;;;1.80;1.63;;;0.70;1.00;;;;;;4968774;28;20035;-77
2023/12/03 12:03:08;;;;;;;1.42;1.25;;;0.70;1.00;;;;;;4950445;28;20035;-75
2023/12/03 12:05:48;;;;;;;6.97;3.22;;;0.80;1.00;;;;;;4951270;28;20043;-78
2023/12/03 12:08:20;;;;;;;3.55;1.50;;;0.90;1.00;;;;;;4967988;28;20206;-78
2023/12/03 12:10:46;;;;;;;1.30;1.20;;;0.90;99.90;;;;;;4973360;28;20042;-78
2023/12/03 12:13:14;;;;;;;3.45;3.17;;;1.00;99.90;;;;;;4969883;28;20472;-79
2023/12/03 12:15:42;;;;;;;4.25;2.88;;;0.90;99.90;;;;;;4966411;28;20051;-78
2023/12/03 12:18:09;;;;;;;1.75;1.55;;;1.00;99.90;;;;;;4961924;28;20400;-77
2023/12/03 12:20:35;;;;;;;0.80;0.80;;;1.00;99.90;;;;;;4968698;28;20375;-77
2023/12/03 12:23:02;;;;;;;2.75;2.45;;;1.10;99.90;;;;;;4967440;28;20354;-77
2023/12/03 12:25:29;;;;;;;4.95;2.97;;;1.10;99.90;;;;;;4965134;28;20043;-77
2023/12/03 12:27:56;;;;;;;3.10;2.90;;;1.10;99.90;;;;;;4966249;28;20047;-75
2023/12/03 12:30:29;;;;;;;3.63;2.33;;;1.20;99.90;;;;;;4964491;28;20066;-75
2023/12/03 12:32:56;;;;;;;3.35;1.05;;;1.20;99.90;;;;;;4967000;28;20460;-75
2023/12/03 12:35:25;;;;;;;2.50;2.30;;;1.20;99.90;;;;;;4968055;28;20029;-74
2023/12/03 12:38:04;;;;;;;2.88;1.77;;;1.20;99.90;;;;;;4963260;28;20035;-77
2023/12/03 12:40:32;;;;;;;2.92;2.72;;;1.20;99.90;;;;;;4969327;28;20465;-77
2023/12/03 12:43:09;;;;;;;1.83;1.73;;;1.20;99.90;;;;;;4947769;28;20473;-77
2023/12/03 12:45:38;;;;;;;3.35;2.38;;;1.30;99.90;;;;;;4966029;28;20054;-77
2023/12/03 12:48:04;;;;;;;1.77;1.27;;;1.30;99.90;;;;;;4963333;28;20062;-75
2023/12/03 12:50:41;;;;;;;1.83;1.73;;;1.30;99.90;;;;;;4965714;28;20047;-75
2023/12/03 12:53:08;;;;;;;3.88;2.00;;;1.30;99.90;;;;;;4964603;28;20035;-74